This is the latest recevied weather packets stored in our database for station/object K9JWM. If no packets are shown the sender has not sent any weather packets the latest 10 day(s).
| Time | Temp. | Humidity | Pressure | Rain* | Wind** | Luminosity | Snow |
|---|---|---|---|---|---|---|---|
| 1777879031 | 12.78° C | 45% | 996.3 hPa | 0 mm | - | - | - |
| 1777878129 | 12.78° C | 46% | 996.8 hPa | 0 mm | - | - | - |
| 1777877231 | 12.78° C | 46% | 997 hPa | 0 mm | - | - | - |
| 1777876330 | 12.22° C | 48% | 997.1 hPa | 0 mm | - | - | - |
| 1777875429 | 11.67° C | 46% | 997.4 hPa | 0 mm | - | - | - |
| 1777874530 | 11.67° C | 46% | 997.6 hPa | 0 mm | - | - | - |
| 1777873630 | 11.67° C | 45% | 998 hPa | 0 mm | - | - | - |
| 1777872730 | 12.22° C | 43% | 998.5 hPa | 0 mm | - | - | - |
| 1777871829 | 12.22° C | 45% | 998.7 hPa | 0 mm | - | - | - |
| 1777870930 | 12.22° C | 46% | 998.9 hPa | 0 mm | - | - | - |
| 1777870030 | 11.67° C | 46% | 999.2 hPa | 0 mm | - | - | - |
| 1777869130 | 11.11° C | 56% | 999.4 hPa | 0 mm | - | - | - |
| 1777868230 | 10° C | 52% | 999.6 hPa | 0 mm | - | - | - |
| 1777867330 | 9.44° C | 53% | 999.9 hPa | 0 mm | - | - | - |
| 1777866429 | 9.44° C | 59% | 1000.3 hPa | 0 mm | - | - | - |
| 1777865530 | 10° C | 65% | 1000.8 hPa | 0 mm | - | - | - |
| 1777864630 | 10° C | 63% | 1000.9 hPa | 0 mm | - | - | - |
| 1777863730 | 10.56° C | 65% | 1001.2 hPa | 0 mm | - | - | - |
| 1777862830 | 11.11° C | 60% | 1001.3 hPa | 0 mm | - | - | - |
| 1777861929 | 11.67° C | 57% | 1001.4 hPa | 0 mm | - | - | - |
| 1777861030 | 12.22° C | 49% | 1001.4 hPa | 0 mm | - | - | - |
| 1777860129 | 12.78° C | 44% | 1001.3 hPa | 0 mm | - | - | - |
| 1777859230 | 13.89° C | 39% | 1001.3 hPa | 0 mm | - | - | - |
| 1777858329 | 14.44° C | 36% | 1001.4 hPa | 0 mm | - | - | - |
| 1777857429 | 15.56° C | 37% | 1001.6 hPa | 0 mm | - | - | - |
* Rain latest hour (hover to see other rain measurements)
** Current wind speed in m/s (hover to see current wind gust speed)